Walter J Mccarthy Jr — WXU3434 — position and weather

sailwx.info

Track history (hours):
 
Tides and Currents Weather Stations Pressure Air Temp Water Temp Dewpoint Dewpoint Depression Visibility Wind Speed Wind Dir Waves Ship Positions

Walter J Mccarthy Jr

Owner: ARMSTRONG STEAMSHIP CO, WILLIAMSVILLE, NY. More information available from US FCC via Universal Licensing System and Coast Guard Vessel Documentation Center.

Last reported at 2018-Jan-08 18:00 UTC. Time now 2018-Feb-20 19:42 UTC.
Position N 43°18' W 082°12'.
Warning: this ship's position is 43 days out of date.

Length 304 m; draft 8.5 m.

Type: Cargo ship. MMSI: 366906610.

Wind from 250 at 20 knots

Barometer 1011.5 mb
Air temperature 1.6 ° C
Visibility: greater than 5.4 NM

Date/timePositionNaut miles runAvg speedWind from/ knotsBaromVisibWave heightAir tempDewpointWater temp
2018-Jan-08 18:00N 43°18' W 082°12'   250 / 201011.5 5.4 1.6
2018-Jan-06 05:00N 45°24' W 083°12'   360 / 221029.5 1.1 -17.7
2018-Jan-03 18:00N 47°24' W 085°06'12010.0 350 / 301014.0 5.4 -12.2
2018-Jan-03 06:00N 48°30' W 087°36'12810.7 020 / 201012.410.8 -11.6
2018-Jan-02 18:00N 47°36' W 090°30'5513.4 240 / 231015.010.8 -5.5
2018-Jan-02 13:54N 47°03' W 091°35'411.0
2018-Jan-02 13:30N 47°00' W 091°39'1 0.0
2018-Jan-01 11:06N 47°01' W 091°40'0 0.0
2018-Jan-01 10:50N 47°01' W 091°40'0 0.0
2018-Jan-01 10:10N 47°01' W 091°40'0 0.0
2018-Jan-01 08:11N 47°01' W 091°40'0 0.2
2018-Jan-01 08:00N 47°01' W 091°40'1 1.3
2018-Jan-01 07:30N 47°00' W 091°41'3 5.1
2018-Jan-01 07:00N 46°58' W 091°42'6 6.4
2018-Jan-01 06:00N 46°53' W 091°48'3 6.7
2018-Jan-01 05:30N 46°51' W 091°52'4 8.9
2018-Jan-01 05:00N 46°49' W 091°57'2 2.3
2018-Jan-01 04:00N 46°47' W 091°60'0 0.2
2018-Jan-01 03:30N 46°47' W 091°60'0 0.0
2018-Jan-01 03:00N 46°47' W 091°60'0 0.0
2018-Jan-01 02:30N 46°47' W 091°60'0 0.0
2018-Jan-01 02:00N 46°47' W 091°60'0 0.0
2018-Jan-01 01:30N 46°47' W 091°60'0 0.0
2018-Jan-01 00:30N 46°47' W 091°60'0 0.0
2017-Dec-31 21:00N 46°47' W 091°60'0 0.2
2017-Dec-31 20:30N 46°47' W 091°60'0 0.1
2017-Dec-31 20:00N 46°47' W 091°60'0 0.1
2017-Dec-31 19:30N 46°47' W 091°60'0 0.0
2017-Dec-31 19:00N 46°47' W 091°60'0 0.1
2017-Dec-31 18:30N 46°47' W 091°60'0 0.2
2017-Dec-31 18:00N 46°47' W 091°60'0 0.0
2017-Dec-31 17:30N 46°47' W 091°60'0 0.2
2017-Dec-31 17:00N 46°47' W 091°60'0 0.1
2017-Dec-31 16:30N 46°47' W 091°60'0 0.1
2017-Dec-31 16:00N 46°47' W 091°60'0 0.0
2017-Dec-31 15:30N 46°47' W 091°60'0 0.0
2017-Dec-31 15:00N 46°47' W 091°60'0 0.1
2017-Dec-31 14:30N 46°47' W 091°60'0 0.0
2017-Dec-31 14:00N 46°47' W 091°60'0 0.1
2017-Dec-31 13:30N 46°47' W 091°60'0 0.0
2017-Dec-31 13:00N 46°47' W 091°60'0 0.0
2017-Dec-31 12:30N 46°47' W 091°60'0 0.1
2017-Dec-31 12:00N 46°47' W 091°60'0 0.2
2017-Dec-31 11:30N 46°47' W 091°60'0 0.0
2017-Dec-31 11:00N 46°47' W 091°60'0 0.1
2017-Dec-31 10:30N 46°47' W 091°60'0 0.2
2017-Dec-31 10:01N 46°47' W 091°60'0 0.0
2017-Dec-31 09:30N 46°47' W 091°60'0 0.0
2017-Dec-31 09:00N 46°47' W 091°60'0 0.0
2017-Dec-31 08:30N 46°47' W 091°60'0 0.0
2017-Dec-31 08:00N 46°47' W 091°60'0 0.1
2017-Dec-31 07:30N 46°47' W 092°00'0 0.0
2017-Dec-31 07:00N 46°47' W 092°00'0 0.1
2017-Dec-31 06:30N 46°47' W 092°00'0 0.1
2017-Dec-31 06:00N 46°47' W 092°00'0 0.1
2017-Dec-31 05:30N 46°47' W 092°00'0 0.1
2017-Dec-31 05:00N 46°47' W 092°00'0 0.1
2017-Dec-31 04:30N 46°47' W 092°00'0 0.1
2017-Dec-31 04:00N 46°47' W 092°00'0 0.0
2017-Dec-31 03:30N 46°47' W 092°00'0 0.1
2017-Dec-31 03:00N 46°47' W 092°00'0 0.1
2017-Dec-31 02:30N 46°47' W 092°00'0 0.2
2017-Dec-31 02:00N 46°47' W 092°00'0 0.0
2017-Dec-31 01:30N 46°47' W 091°60'0 0.1
2017-Dec-31 01:00N 46°47' W 091°60'0 0.2
2017-Dec-31 00:30N 46°47' W 091°60'0 0.1
2017-Dec-31 00:00N 46°47' W 091°60'0 0.1
2017-Dec-30 23:30N 46°47' W 091°60'0 0.1
2017-Dec-30 23:00N 46°47' W 091°60'0 0.0
2017-Dec-30 22:30N 46°47' W 091°60'0 0.1
2017-Dec-30 22:01N 46°47' W 091°60'0 0.1
2017-Dec-30 21:31N 46°47' W 091°60'0 0.0
2017-Dec-30 21:00N 46°47' W 091°60'0 0.1
2017-Dec-30 20:31N 46°47' W 091°60'0 0.1
2017-Dec-30 20:00N 46°47' W 091°60'0 0.1
2017-Dec-30 19:30N 46°47' W 091°60'0 0.1
2017-Dec-30 19:00N 46°47' W 091°60'0 0.1
2017-Dec-30 18:30N 46°47' W 091°60'0 0.1
2017-Dec-30 18:00N 46°47' W 091°60'0 0.0
2017-Dec-30 17:30N 46°47' W 091°60'0 0.0
2017-Dec-30 17:00N 46°47' W 091°60'0 0.1
2017-Dec-30 16:30N 46°47' W 091°60'0 0.0
2017-Dec-30 16:00N 46°47' W 091°60'0 0.1
2017-Dec-30 15:30N 46°47' W 091°60'0 0.1
2017-Dec-30 15:00N 46°47' W 091°60'0 0.0
2017-Dec-30 14:30N 46°47' W 091°60'0 0.1
2017-Dec-30 14:00N 46°47' W 091°60'0 0.0
2017-Dec-30 13:30N 46°47' W 091°60'0 0.1
2017-Dec-30 13:00N 46°47' W 091°60'0 0.0
2017-Dec-30 12:30N 46°47' W 091°60'0 0.0
2017-Dec-30 12:00N 46°47' W 091°60'0 0.1
2017-Dec-30 11:30N 46°47' W 091°60'0 0.1
2017-Dec-30 11:00N 46°47' W 091°60'0 0.0
2017-Dec-30 10:30N 46°47' W 091°60'0 0.1
2017-Dec-30 10:00N 46°47' W 091°60'0 0.4
2017-Dec-30 09:31N 46°47' W 091°60'3 5.9
2017-Dec-30 09:00N 46°49' W 091°56'4 8.3
2017-Dec-30 08:30N 46°51' W 091°51'1 1.2
2017-Dec-30 08:00N 46°51' W 091°51'3 6.8
2017-Dec-30 07:30N 46°53' W 091°46'2 2.8
2017-Dec-30 06:47N 46°55' W 091°46'3 9.3
2017-Dec-30 06:30N 46°54' W 091°50'4 7.1
2017-Dec-30 06:00N 46°51' W 091°52'3 6.8
2017-Dec-30 05:30N 46°53' W 091°48'4 8.9
2017-Dec-30 05:00N 46°55' W 091°43'4 8.7
2017-Dec-30 04:30N 46°58' W 091°38'  
Track history (hours):
 
Tides and Currents Weather Stations Pressure Air Temp Water Temp Dewpoint Dewpoint Depression Visibility Wind Speed Wind Dir Waves Ship Positions

Walter J Mccarthy Jr

Owner: ARMSTRONG STEAMSHIP CO, WILLIAMSVILLE, NY. More information available from US FCC via Universal Licensing System and Coast Guard Vessel Documentation Center.

Last reported at 2018-Jan-08 18:00 UTC. Time now 2018-Feb-20 19:42 UTC.
Position N 43°18' W 082°12'.
Warning: this ship's position is 43 days out of date.

Length 304 m; draft 8.5 m.

Type: Cargo ship. MMSI: 366906610.

Wind from 250 at 20 knots

Barometer 1011.5 mb
Air temperature 1.6 ° C
Visibility: greater than 5.4 NM

Date/timePositionNaut miles runAvg speedWind from/ knotsBaromVisibWave heightAir tempDewpointWater temp
2018-Jan-08 18:00N 43°18' W 082°12'   250 / 201011.5 5.4 1.6
2018-Jan-06 05:00N 45°24' W 083°12'   360 / 221029.5 1.1 -17.7
2018-Jan-03 18:00N 47°24' W 085°06'12010.0 350 / 301014.0 5.4 -12.2
2018-Jan-03 06:00N 48°30' W 087°36'12810.7 020 / 201012.410.8 -11.6
2018-Jan-02 18:00N 47°36' W 090°30'5513.4 240 / 231015.010.8 -5.5
2018-Jan-02 13:54N 47°03' W 091°35'411.0
2018-Jan-02 13:30N 47°00' W 091°39'1 0.0
2018-Jan-01 11:06N 47°01' W 091°40'0 0.0
2018-Jan-01 10:50N 47°01' W 091°40'0 0.0
2018-Jan-01 10:10N 47°01' W 091°40'0 0.0
2018-Jan-01 08:11N 47°01' W 091°40'0 0.2
2018-Jan-01 08:00N 47°01' W 091°40'1 1.3
2018-Jan-01 07:30N 47°00' W 091°41'3 5.1
2018-Jan-01 07:00N 46°58' W 091°42'6 6.4
2018-Jan-01 06:00N 46°53' W 091°48'3 6.7
2018-Jan-01 05:30N 46°51' W 091°52'4 8.9
2018-Jan-01 05:00N 46°49' W 091°57'2 2.3
2018-Jan-01 04:00N 46°47' W 091°60'0 0.2
2018-Jan-01 03:30N 46°47' W 091°60'0 0.0
2018-Jan-01 03:00N 46°47' W 091°60'0 0.0
2018-Jan-01 02:30N 46°47' W 091°60'0 0.0
2018-Jan-01 02:00N 46°47' W 091°60'0 0.0
2018-Jan-01 01:30N 46°47' W 091°60'0 0.0
2018-Jan-01 00:30N 46°47' W 091°60'0 0.0
2017-Dec-31 21:00N 46°47' W 091°60'0 0.2
2017-Dec-31 20:30N 46°47' W 091°60'0 0.1
2017-Dec-31 20:00N 46°47' W 091°60'0 0.1
2017-Dec-31 19:30N 46°47' W 091°60'0 0.0
2017-Dec-31 19:00N 46°47' W 091°60'0 0.1
2017-Dec-31 18:30N 46°47' W 091°60'0 0.2
2017-Dec-31 18:00N 46°47' W 091°60'0 0.0
2017-Dec-31 17:30N 46°47' W 091°60'0 0.2
2017-Dec-31 17:00N 46°47' W 091°60'0 0.1
2017-Dec-31 16:30N 46°47' W 091°60'0 0.1
2017-Dec-31 16:00N 46°47' W 091°60'0 0.0
2017-Dec-31 15:30N 46°47' W 091°60'0 0.0
2017-Dec-31 15:00N 46°47' W 091°60'0 0.1
2017-Dec-31 14:30N 46°47' W 091°60'0 0.0
2017-Dec-31 14:00N 46°47' W 091°60'0 0.1
2017-Dec-31 13:30N 46°47' W 091°60'0 0.0
2017-Dec-31 13:00N 46°47' W 091°60'0 0.0
2017-Dec-31 12:30N 46°47' W 091°60'0 0.1
2017-Dec-31 12:00N 46°47' W 091°60'0 0.2
2017-Dec-31 11:30N 46°47' W 091°60'0 0.0
2017-Dec-31 11:00N 46°47' W 091°60'0 0.1
2017-Dec-31 10:30N 46°47' W 091°60'0 0.2
2017-Dec-31 10:01N 46°47' W 091°60'0 0.0
2017-Dec-31 09:30N 46°47' W 091°60'0 0.0
2017-Dec-31 09:00N 46°47' W 091°60'0 0.0
2017-Dec-31 08:30N 46°47' W 091°60'0 0.0
2017-Dec-31 08:00N 46°47' W 091°60'0 0.1
2017-Dec-31 07:30N 46°47' W 092°00'0 0.0
2017-Dec-31 07:00N 46°47' W 092°00'0 0.1
2017-Dec-31 06:30N 46°47' W 092°00'0 0.1
2017-Dec-31 06:00N 46°47' W 092°00'0 0.1
2017-Dec-31 05:30N 46°47' W 092°00'0 0.1
2017-Dec-31 05:00N 46°47' W 092°00'0 0.1
2017-Dec-31 04:30N 46°47' W 092°00'0 0.1
2017-Dec-31 04:00N 46°47' W 092°00'0 0.0
2017-Dec-31 03:30N 46°47' W 092°00'0 0.1
2017-Dec-31 03:00N 46°47' W 092°00'0 0.1
2017-Dec-31 02:30N 46°47' W 092°00'0 0.2
2017-Dec-31 02:00N 46°47' W 092°00'0 0.0
2017-Dec-31 01:30N 46°47' W 091°60'0 0.1
2017-Dec-31 01:00N 46°47' W 091°60'0 0.2
2017-Dec-31 00:30N 46°47' W 091°60'0 0.1
2017-Dec-31 00:00N 46°47' W 091°60'0 0.1
2017-Dec-30 23:30N 46°47' W 091°60'0 0.1
2017-Dec-30 23:00N 46°47' W 091°60'0 0.0
2017-Dec-30 22:30N 46°47' W 091°60'0 0.1
2017-Dec-30 22:01N 46°47' W 091°60'0 0.1
2017-Dec-30 21:31N 46°47' W 091°60'0 0.0
2017-Dec-30 21:00N 46°47' W 091°60'0 0.1
2017-Dec-30 20:31N 46°47' W 091°60'0 0.1
2017-Dec-30 20:00N 46°47' W 091°60'0 0.1
2017-Dec-30 19:30N 46°47' W 091°60'0 0.1
2017-Dec-30 19:00N 46°47' W 091°60'0 0.1
2017-Dec-30 18:30N 46°47' W 091°60'0 0.1
2017-Dec-30 18:00N 46°47' W 091°60'0 0.0
2017-Dec-30 17:30N 46°47' W 091°60'0 0.0
2017-Dec-30 17:00N 46°47' W 091°60'0 0.1
2017-Dec-30 16:30N 46°47' W 091°60'0 0.0
2017-Dec-30 16:00N 46°47' W 091°60'0 0.1
2017-Dec-30 15:30N 46°47' W 091°60'0 0.1
2017-Dec-30 15:00N 46°47' W 091°60'0 0.0
2017-Dec-30 14:30N 46°47' W 091°60'0 0.1
2017-Dec-30 14:00N 46°47' W 091°60'0 0.0
2017-Dec-30 13:30N 46°47' W 091°60'0 0.1
2017-Dec-30 13:00N 46°47' W 091°60'0 0.0
2017-Dec-30 12:30N 46°47' W 091°60'0 0.0
2017-Dec-30 12:00N 46°47' W 091°60'0 0.1
2017-Dec-30 11:30N 46°47' W 091°60'0 0.1
2017-Dec-30 11:00N 46°47' W 091°60'0 0.0
2017-Dec-30 10:30N 46°47' W 091°60'0 0.1
2017-Dec-30 10:00N 46°47' W 091°60'0 0.4
2017-Dec-30 09:31N 46°47' W 091°60'3 5.9
2017-Dec-30 09:00N 46°49' W 091°56'4 8.3
2017-Dec-30 08:30N 46°51' W 091°51'1 1.2
2017-Dec-30 08:00N 46°51' W 091°51'3 6.8
2017-Dec-30 07:30N 46°53' W 091°46'2 2.8
2017-Dec-30 06:47N 46°55' W 091°46'3 9.3
2017-Dec-30 06:30N 46°54' W 091°50'4 7.1
2017-Dec-30 06:00N 46°51' W 091°52'3 6.8
2017-Dec-30 05:30N 46°53' W 091°48'4 8.9
2017-Dec-30 05:00N 46°55' W 091°43'4 8.7
2017-Dec-30 04:30N 46°58' W 091°38'  

Dump ship's entire track history